Terminal Aerodrome Forecast
Issued by NWS Paducah, KY

Home | Current Version | Previous Version | Graphics & Text | Print | Product List | Glossary On
Versions: 1 2 3 4 5 6 7 8 9 10 11 12 13 14 15 16 17
600
FTUS43 KPAH 291956 AAA
TAFEVV
TAF AMD
KEVV 291956Z 2920/3018 25006KT P6SM VCTS BKN045CB
      TEMPO 2920/2921 VRB15G30KT 5SM TSRA BKN030CB
     FM300100 VRB03KT P6SM SKC=

USA.gov is the U.S. government's official web portal to all federal, state and local government web resources and services.